sensor_id;sensor_type;location;lat;lon;timestamp;P1;durP1;ratioP1;P2;durP2;ratioP2
46845;SDS011;33947;46.804;134.252;2023-07-02T00:02:42;5.57;;;3.67;;
46845;SDS011;33947;46.804;134.252;2023-07-02T00:05:48;9.98;;;4.20;;
46845;SDS011;33947;46.804;134.252;2023-07-02T00:08:56;5.88;;;4.20;;
46845;SDS011;33947;46.804;134.252;2023-07-02T00:12:00;8.55;;;5.13;;
46845;SDS011;33947;46.804;134.252;2023-07-02T00:15:07;6.28;;;4.50;;
46845;SDS011;33947;46.804;134.252;2023-07-02T00:18:13;8.65;;;4.85;;
46845;SDS011;33947;46.804;134.252;2023-07-02T00:21:23;7.43;;;5.07;;
46845;SDS011;33947;46.804;134.252;2023-07-02T00:24:33;5.63;;;3.75;;
46845;SDS011;33947;46.804;134.252;2023-07-02T00:27:41;12.63;;;4.38;;
46845;SDS011;33947;46.804;134.252;2023-07-02T00:30:47;5.55;;;4.15;;
46845;SDS011;33947;46.804;134.252;2023-07-02T00:33:54;10.32;;;4.55;;
46845;SDS011;33947;46.804;134.252;2023-07-02T00:37:01;8.25;;;4.47;;
46845;SDS011;33947;46.804;134.252;2023-07-02T00:40:07;8.15;;;4.65;;
46845;SDS011;33947;46.804;134.252;2023-07-02T00:43:14;5.90;;;4.63;;
46845;SDS011;33947;46.804;134.252;2023-07-02T00:46:20;8.13;;;4.82;;
46845;SDS011;33947;46.804;134.252;2023-07-02T00:49:30;12.68;;;5.38;;
46845;SDS011;33947;46.804;134.252;2023-07-02T00:52:37;6.65;;;5.85;;
46845;SDS011;33947;46.804;134.252;2023-07-02T00:55:44;8.88;;;4.82;;
46845;SDS011;33947;46.804;134.252;2023-07-02T00:58:52;6.25;;;4.60;;
46845;SDS011;33947;46.804;134.252;2023-07-02T01:01:59;5.57;;;4.38;;
46845;SDS011;33947;46.804;134.252;2023-07-02T01:05:06;7.68;;;4.28;;
46845;SDS011;33947;46.804;134.252;2023-07-02T01:08:13;6.38;;;4.55;;
46845;SDS011;33947;46.804;134.252;2023-07-02T01:11:23;8.80;;;5.22;;
46845;SDS011;33947;46.804;134.252;2023-07-02T01:14:40;18.77;;;5.53;;
46845;SDS011;33947;46.804;134.252;2023-07-02T01:17:49;6.28;;;4.82;;
46845;SDS011;33947;46.804;134.252;2023-07-02T01:21:00;6.53;;;4.88;;
46845;SDS011;33947;46.804;134.252;2023-07-02T01:24:06;7.55;;;4.40;;
46845;SDS011;33947;46.804;134.252;2023-07-02T01:27:13;8.80;;;4.22;;
46845;SDS011;33947;46.804;134.252;2023-07-02T01:30:21;8.77;;;4.60;;
46845;SDS011;33947;46.804;134.252;2023-07-02T01:33:27;16.42;;;4.50;;
46845;SDS011;33947;46.804;134.252;2023-07-02T01:36:34;5.82;;;4.68;;
46845;SDS011;33947;46.804;134.252;2023-07-02T01:39:44;6.43;;;5.32;;
46845;SDS011;33947;46.804;134.252;2023-07-02T01:42:58;6.10;;;4.90;;
46845;SDS011;33947;46.804;134.252;2023-07-02T01:46:04;8.27;;;5.10;;
46845;SDS011;33947;46.804;134.252;2023-07-02T01:49:13;7.38;;;5.00;;
46845;SDS011;33947;46.804;134.252;2023-07-02T01:52:20;6.97;;;4.97;;
46845;SDS011;33947;46.804;134.252;2023-07-02T01:55:27;7.15;;;5.47;;
46845;SDS011;33947;46.804;134.252;2023-07-02T01:58:34;6.60;;;4.72;;
46845;SDS011;33947;46.804;134.252;2023-07-02T02:01:41;7.38;;;5.47;;
46845;SDS011;33947;46.804;134.252;2023-07-02T02:04:48;8.27;;;5.50;;
46845;SDS011;33947;46.804;134.252;2023-07-02T02:07:56;7.90;;;6.03;;
46845;SDS011;33947;46.804;134.252;2023-07-02T02:11:02;12.02;;;6.32;;
46845;SDS011;33947;46.804;134.252;2023-07-02T02:14:09;14.77;;;6.53;;
46845;SDS011;33947;46.804;134.252;2023-07-02T02:17:15;8.05;;;5.88;;
46845;SDS011;33947;46.804;134.252;2023-07-02T02:20:22;7.40;;;6.15;;
46845;SDS011;33947;46.804;134.252;2023-07-02T02:23:28;7.57;;;5.40;;
46845;SDS011;33947;46.804;134.252;2023-07-02T02:26:36;7.55;;;5.20;;
46845;SDS011;33947;46.804;134.252;2023-07-02T02:29:43;6.15;;;5.28;;
46845;SDS011;33947;46.804;134.252;2023-07-02T02:32:50;10.88;;;5.65;;
46845;SDS011;33947;46.804;134.252;2023-07-02T02:36:05;7.50;;;5.57;;
46845;SDS011;33947;46.804;134.252;2023-07-02T02:39:12;10.93;;;6.18;;
46845;SDS011;33947;46.804;134.252;2023-07-02T02:42:22;9.82;;;6.03;;
46845;SDS011;33947;46.804;134.252;2023-07-02T02:45:32;8.70;;;6.18;;
46845;SDS011;33947;46.804;134.252;2023-07-02T02:48:38;8.35;;;6.35;;
46845;SDS011;33947;46.804;134.252;2023-07-02T02:51:45;10.10;;;6.68;;
46845;SDS011;33947;46.804;134.252;2023-07-02T02:54:51;10.40;;;6.72;;
46845;SDS011;33947;46.804;134.252;2023-07-02T02:57:58;9.82;;;6.63;;
46845;SDS011;33947;46.804;134.252;2023-07-02T03:01:04;8.73;;;6.93;;
46845;SDS011;33947;46.804;134.252;2023-07-02T03:04:16;8.52;;;6.15;;
46845;SDS011;33947;46.804;134.252;2023-07-02T03:07:23;8.48;;;6.47;;
46845;SDS011;33947;46.804;134.252;2023-07-02T03:10:29;13.80;;;6.55;;
46845;SDS011;33947;46.804;134.252;2023-07-02T03:13:36;8.18;;;6.53;;
46845;SDS011;33947;46.804;134.252;2023-07-02T03:16:42;13.88;;;7.00;;
46845;SDS011;33947;46.804;134.252;2023-07-02T03:19:50;12.80;;;7.13;;
46845;SDS011;33947;46.804;134.252;2023-07-02T03:22:57;13.48;;;7.20;;
46845;SDS011;33947;46.804;134.252;2023-07-02T03:26:03;9.95;;;6.63;;
46845;SDS011;33947;46.804;134.252;2023-07-02T03:29:10;8.00;;;6.45;;
46845;SDS011;33947;46.804;134.252;2023-07-02T03:32:17;11.32;;;6.65;;
46845;SDS011;33947;46.804;134.252;2023-07-02T03:35:23;9.90;;;7.25;;
46845;SDS011;33947;46.804;134.252;2023-07-02T03:38:30;9.02;;;6.97;;
46845;SDS011;33947;46.804;134.252;2023-07-02T03:41:36;8.65;;;6.97;;
46845;SDS011;33947;46.804;134.252;2023-07-02T03:44:42;8.23;;;7.38;;
46845;SDS011;33947;46.804;134.252;2023-07-02T03:47:49;10.07;;;7.40;;
46845;SDS011;33947;46.804;134.252;2023-07-02T03:50:55;9.15;;;7.72;;
46845;SDS011;33947;46.804;134.252;2023-07-02T03:54:01;8.43;;;7.32;;
46845;SDS011;33947;46.804;134.252;2023-07-02T03:57:08;10.93;;;7.70;;
46845;SDS011;33947;46.804;134.252;2023-07-02T04:00:14;8.98;;;7.30;;
46845;SDS011;33947;46.804;134.252;2023-07-02T04:03:23;9.07;;;7.47;;
46845;SDS011;33947;46.804;134.252;2023-07-02T04:06:30;13.63;;;8.05;;
46845;SDS011;33947;46.804;134.252;2023-07-02T04:09:39;8.88;;;7.60;;
46845;SDS011;33947;46.804;134.252;2023-07-02T04:12:44;13.35;;;7.18;;
46845;SDS011;33947;46.804;134.252;2023-07-02T04:15:50;8.32;;;7.28;;
46845;SDS011;33947;46.804;134.252;2023-07-02T04:18:57;9.40;;;7.00;;
46845;SDS011;33947;46.804;134.252;2023-07-02T04:22:04;8.68;;;7.47;;
46845;SDS011;33947;46.804;134.252;2023-07-02T04:25:11;9.23;;;7.72;;
46845;SDS011;33947;46.804;134.252;2023-07-02T04:28:41;13.52;;;8.00;;
46845;SDS011;33947;46.804;134.252;2023-07-02T04:31:48;10.02;;;7.50;;
46845;SDS011;33947;46.804;134.252;2023-07-02T04:34:54;8.57;;;7.45;;
46845;SDS011;33947;46.804;134.252;2023-07-02T04:38:02;9.75;;;7.53;;
46845;SDS011;33947;46.804;134.252;2023-07-02T04:41:08;8.85;;;7.40;;
46845;SDS011;33947;46.804;134.252;2023-07-02T04:44:18;9.63;;;7.32;;
46845;SDS011;33947;46.804;134.252;2023-07-02T04:47:31;10.10;;;8.05;;
46845;SDS011;33947;46.804;134.252;2023-07-02T04:50:37;8.05;;;7.05;;
46845;SDS011;33947;46.804;134.252;2023-07-02T04:53:43;9.27;;;7.82;;
46845;SDS011;33947;46.804;134.252;2023-07-02T04:56:50;13.27;;;8.20;;
46845;SDS011;33947;46.804;134.252;2023-07-02T04:59:57;10.55;;;7.57;;
46845;SDS011;33947;46.804;134.252;2023-07-02T05:03:03;10.60;;;7.88;;
46845;SDS011;33947;46.804;134.252;2023-07-02T05:06:10;11.30;;;7.95;;
46845;SDS011;33947;46.804;134.252;2023-07-02T05:09:17;11.43;;;8.55;;
46845;SDS011;33947;46.804;134.252;2023-07-02T05:12:23;9.57;;;8.15;;
46845;SDS011;33947;46.804;134.252;2023-07-02T05:15:30;8.63;;;7.40;;
46845;SDS011;33947;46.804;134.252;2023-07-02T05:18:39;12.57;;;8.52;;
46845;SDS011;33947;46.804;134.252;2023-07-02T05:21:48;10.35;;;8.00;;
46845;SDS011;33947;46.804;134.252;2023-07-02T05:24:54;14.90;;;7.90;;
46845;SDS011;33947;46.804;134.252;2023-07-02T05:28:01;12.07;;;8.18;;
46845;SDS011;33947;46.804;134.252;2023-07-02T05:31:07;9.18;;;7.72;;
46845;SDS011;33947;46.804;134.252;2023-07-02T05:34:14;16.05;;;7.28;;
46845;SDS011;33947;46.804;134.252;2023-07-02T05:37:21;13.57;;;7.40;;
46845;SDS011;33947;46.804;134.252;2023-07-02T05:40:28;10.85;;;6.57;;
46845;SDS011;33947;46.804;134.252;2023-07-02T05:43:36;10.52;;;7.13;;
46845;SDS011;33947;46.804;134.252;2023-07-02T05:46:42;9.85;;;6.93;;
46845;SDS011;33947;46.804;134.252;2023-07-02T05:49:49;11.38;;;8.15;;
46845;SDS011;33947;46.804;134.252;2023-07-02T05:52:55;10.77;;;7.65;;
46845;SDS011;33947;46.804;134.252;2023-07-02T05:56:01;12.57;;;7.70;;
46845;SDS011;33947;46.804;134.252;2023-07-02T05:59:08;14.98;;;7.55;;
46845;SDS011;33947;46.804;134.252;2023-07-02T06:02:14;11.82;;;8.05;;
46845;SDS011;33947;46.804;134.252;2023-07-02T06:05:21;13.38;;;8.05;;
46845;SDS011;33947;46.804;134.252;2023-07-02T06:08:27;14.40;;;9.48;;
46845;SDS011;33947;46.804;134.252;2023-07-02T06:11:34;17.50;;;8.48;;
46845;SDS011;33947;46.804;134.252;2023-07-02T06:14:40;13.90;;;8.02;;
46845;SDS011;33947;46.804;134.252;2023-07-02T06:17:47;11.38;;;7.65;;
46845;SDS011;33947;46.804;134.252;2023-07-02T06:20:53;12.00;;;7.20;;
46845;SDS011;33947;46.804;134.252;2023-07-02T06:24:08;13.25;;;8.15;;
46845;SDS011;33947;46.804;134.252;2023-07-02T06:27:14;12.60;;;7.15;;
46845;SDS011;33947;46.804;134.252;2023-07-02T06:30:21;12.20;;;8.20;;
46845;SDS011;33947;46.804;134.252;2023-07-02T06:33:28;15.70;;;7.43;;
46845;SDS011;33947;46.804;134.252;2023-07-02T06:36:34;10.73;;;7.68;;
46845;SDS011;33947;46.804;134.252;2023-07-02T06:39:41;10.52;;;7.93;;
46845;SDS011;33947;46.804;134.252;2023-07-02T06:42:47;9.32;;;7.45;;
46845;SDS011;33947;46.804;134.252;2023-07-02T06:45:53;11.90;;;7.85;;
46845;SDS011;33947;46.804;134.252;2023-07-02T06:49:00;10.30;;;7.68;;
46845;SDS011;33947;46.804;134.252;2023-07-02T06:52:09;10.05;;;7.40;;
46845;SDS011;33947;46.804;134.252;2023-07-02T06:55:16;12.25;;;7.57;;
46845;SDS011;33947;46.804;134.252;2023-07-02T06:58:22;10.38;;;7.45;;
46845;SDS011;33947;46.804;134.252;2023-07-02T07:01:28;15.63;;;8.73;;
46845;SDS011;33947;46.804;134.252;2023-07-02T07:04:35;15.15;;;7.65;;
46845;SDS011;33947;46.804;134.252;2023-07-02T07:07:41;13.20;;;9.73;;
46845;SDS011;33947;46.804;134.252;2023-07-02T07:10:48;12.10;;;8.27;;
46845;SDS011;33947;46.804;134.252;2023-07-02T07:13:57;11.23;;;7.85;;
46845;SDS011;33947;46.804;134.252;2023-07-02T07:17:03;9.05;;;7.72;;
46845;SDS011;33947;46.804;134.252;2023-07-02T07:20:10;9.57;;;8.20;;
46845;SDS011;33947;46.804;134.252;2023-07-02T07:23:16;9.65;;;6.78;;
46845;SDS011;33947;46.804;134.252;2023-07-02T07:26:22;16.80;;;7.28;;
46845;SDS011;33947;46.804;134.252;2023-07-02T07:29:29;8.35;;;7.10;;
46845;SDS011;33947;46.804;134.252;2023-07-02T07:32:35;9.98;;;7.72;;
46845;SDS011;33947;46.804;134.252;2023-07-02T07:35:41;12.68;;;8.73;;
46845;SDS011;33947;46.804;134.252;2023-07-02T07:38:47;11.82;;;7.43;;
46845;SDS011;33947;46.804;134.252;2023-07-02T07:45:11;9.88;;;7.30;;
46845;SDS011;33947;46.804;134.252;2023-07-02T07:48:17;14.10;;;7.20;;
46845;SDS011;33947;46.804;134.252;2023-07-02T07:51:23;8.38;;;6.82;;
46845;SDS011;33947;46.804;134.252;2023-07-02T07:54:34;9.27;;;7.25;;
46845;SDS011;33947;46.804;134.252;2023-07-02T07:57:41;10.55;;;6.82;;
46845;SDS011;33947;46.804;134.252;2023-07-02T08:00:50;9.43;;;6.72;;
46845;SDS011;33947;46.804;134.252;2023-07-02T08:03:56;10.40;;;7.63;;
46845;SDS011;33947;46.804;134.252;2023-07-02T08:07:03;8.82;;;7.25;;
46845;SDS011;33947;46.804;134.252;2023-07-02T08:10:11;8.85;;;7.70;;
46845;SDS011;33947;46.804;134.252;2023-07-02T08:13:16;11.70;;;8.30;;
46845;SDS011;33947;46.804;134.252;2023-07-02T08:16:22;12.75;;;8.15;;
46845;SDS011;33947;46.804;134.252;2023-07-02T08:19:29;10.50;;;8.70;;
46845;SDS011;33947;46.804;134.252;2023-07-02T08:22:37;14.40;;;8.45;;
46845;SDS011;33947;46.804;134.252;2023-07-02T08:25:45;13.52;;;9.30;;
46845;SDS011;33947;46.804;134.252;2023-07-02T08:28:54;15.07;;;9.32;;
46845;SDS011;33947;46.804;134.252;2023-07-02T08:32:01;10.98;;;8.63;;
46845;SDS011;33947;46.804;134.252;2023-07-02T08:35:07;9.75;;;8.30;;
46845;SDS011;33947;46.804;134.252;2023-07-02T08:38:14;10.18;;;8.35;;
46845;SDS011;33947;46.804;134.252;2023-07-02T08:41:20;10.93;;;8.75;;
46845;SDS011;33947;46.804;134.252;2023-07-02T08:44:29;12.55;;;8.40;;
46845;SDS011;33947;46.804;134.252;2023-07-02T08:47:35;11.73;;;9.68;;
46845;SDS011;33947;46.804;134.252;2023-07-02T08:50:42;13.05;;;9.15;;
46845;SDS011;33947;46.804;134.252;2023-07-02T08:53:48;13.98;;;8.82;;
46845;SDS011;33947;46.804;134.252;2023-07-02T08:56:55;23.63;;;11.73;;
46845;SDS011;33947;46.804;134.252;2023-07-02T09:00:04;13.00;;;9.98;;
46845;SDS011;33947;46.804;134.252;2023-07-02T09:03:21;17.15;;;10.20;;
46845;SDS011;33947;46.804;134.252;2023-07-02T09:06:27;14.55;;;8.90;;
46845;SDS011;33947;46.804;134.252;2023-07-02T09:09:43;22.48;;;12.90;;
46845;SDS011;33947;46.804;134.252;2023-07-02T09:12:51;26.13;;;13.77;;
46845;SDS011;33947;46.804;134.252;2023-07-02T09:16:07;17.52;;;11.13;;
46845;SDS011;33947;46.804;134.252;2023-07-02T09:19:16;20.33;;;10.23;;
46845;SDS011;33947;46.804;134.252;2023-07-02T09:22:23;15.20;;;9.23;;
46845;SDS011;33947;46.804;134.252;2023-07-02T09:25:33;13.07;;;9.38;;
46845;SDS011;33947;46.804;134.252;2023-07-02T09:28:42;13.10;;;9.30;;
46845;SDS011;33947;46.804;134.252;2023-07-02T09:31:49;15.52;;;9.07;;
46845;SDS011;33947;46.804;134.252;2023-07-02T09:35:13;13.52;;;9.40;;
46845;SDS011;33947;46.804;134.252;2023-07-02T09:38:20;11.18;;;9.35;;
46845;SDS011;33947;46.804;134.252;2023-07-02T09:41:27;11.32;;;8.70;;
46845;SDS011;33947;46.804;134.252;2023-07-02T09:44:33;11.18;;;8.82;;
46845;SDS011;33947;46.804;134.252;2023-07-02T09:47:42;18.67;;;9.70;;
46845;SDS011;33947;46.804;134.252;2023-07-02T09:50:53;15.80;;;10.43;;
46845;SDS011;33947;46.804;134.252;2023-07-02T09:54:01;14.07;;;9.32;;
46845;SDS011;33947;46.804;134.252;2023-07-02T09:57:07;12.60;;;8.75;;
46845;SDS011;33947;46.804;134.252;2023-07-02T10:00:14;11.38;;;9.85;;
46845;SDS011;33947;46.804;134.252;2023-07-02T10:03:30;18.67;;;10.70;;
46845;SDS011;33947;46.804;134.252;2023-07-02T10:06:51;19.88;;;10.45;;
46845;SDS011;33947;46.804;134.252;2023-07-02T10:10:01;17.00;;;10.63;;
46845;SDS011;33947;46.804;134.252;2023-07-02T10:13:06;16.73;;;10.32;;
46845;SDS011;33947;46.804;134.252;2023-07-02T10:16:16;20.60;;;10.43;;
46845;SDS011;33947;46.804;134.252;2023-07-02T10:19:24;20.77;;;9.98;;
46845;SDS011;33947;46.804;134.252;2023-07-02T10:22:44;24.13;;;11.60;;
46845;SDS011;33947;46.804;134.252;2023-07-02T10:25:52;12.73;;;10.10;;
46845;SDS011;33947;46.804;134.252;2023-07-02T10:28:59;14.43;;;10.13;;
46845;SDS011;33947;46.804;134.252;2023-07-02T10:32:06;19.95;;;9.88;;
46845;SDS011;33947;46.804;134.252;2023-07-02T10:35:17;16.67;;;10.55;;
46845;SDS011;33947;46.804;134.252;2023-07-02T10:38:25;16.05;;;10.55;;
46845;SDS011;33947;46.804;134.252;2023-07-02T10:41:31;20.73;;;12.13;;
46845;SDS011;33947;46.804;134.252;2023-07-02T10:44:51;29.55;;;13.77;;
46845;SDS011;33947;46.804;134.252;2023-07-02T10:48:00;21.23;;;11.93;;
46845;SDS011;33947;46.804;134.252;2023-07-02T10:51:14;24.17;;;13.52;;
46845;SDS011;33947;46.804;134.252;2023-07-02T10:54:21;29.13;;;15.73;;
46845;SDS011;33947;46.804;134.252;2023-07-02T10:57:27;27.42;;;12.93;;
46845;SDS011;33947;46.804;134.252;2023-07-02T11:00:45;26.67;;;15.88;;
46845;SDS011;33947;46.804;134.252;2023-07-02T11:03:57;31.73;;;21.17;;
46845;SDS011;33947;46.804;134.252;2023-07-02T11:07:06;41.42;;;19.77;;
46845;SDS011;33947;46.804;134.252;2023-07-02T11:10:19;33.83;;;19.05;;
46845;SDS011;33947;46.804;134.252;2023-07-02T11:13:26;48.05;;;20.92;;
46845;SDS011;33947;46.804;134.252;2023-07-02T11:16:32;60.25;;;27.45;;
46845;SDS011;33947;46.804;134.252;2023-07-02T11:19:42;31.60;;;18.85;;
46845;SDS011;33947;46.804;134.252;2023-07-02T11:22:56;19.95;;;13.02;;
46845;SDS011;33947;46.804;134.252;2023-07-02T11:26:03;25.35;;;14.10;;
46845;SDS011;33947;46.804;134.252;2023-07-02T11:29:12;19.65;;;14.80;;
46845;SDS011;33947;46.804;134.252;2023-07-02T11:32:26;28.83;;;16.15;;
46845;SDS011;33947;46.804;134.252;2023-07-02T11:35:35;24.00;;;17.85;;
46845;SDS011;33947;46.804;134.252;2023-07-02T11:38:42;33.17;;;19.55;;
46845;SDS011;33947;46.804;134.252;2023-07-02T11:41:49;25.35;;;18.77;;
46845;SDS011;33947;46.804;134.252;2023-07-02T11:44:57;31.38;;;20.00;;
46845;SDS011;33947;46.804;134.252;2023-07-02T11:48:04;21.27;;;13.40;;
46845;SDS011;33947;46.804;134.252;2023-07-02T11:51:10;21.85;;;13.07;;
46845;SDS011;33947;46.804;134.252;2023-07-02T11:54:48;22.15;;;12.23;;
46845;SDS011;33947;46.804;134.252;2023-07-02T11:57:54;19.55;;;12.98;;
46845;SDS011;33947;46.804;134.252;2023-07-02T12:01:00;16.35;;;12.15;;
46845;SDS011;33947;46.804;134.252;2023-07-02T12:04:09;19.15;;;12.35;;
46845;SDS011;33947;46.804;134.252;2023-07-02T12:07:17;16.63;;;12.02;;
46845;SDS011;33947;46.804;134.252;2023-07-02T12:10:23;19.83;;;12.35;;
46845;SDS011;33947;46.804;134.252;2023-07-02T12:13:32;16.20;;;11.13;;
46845;SDS011;33947;46.804;134.252;2023-07-02T12:16:39;18.73;;;11.25;;
46845;SDS011;33947;46.804;134.252;2023-07-02T12:19:50;18.52;;;11.82;;
46845;SDS011;33947;46.804;134.252;2023-07-02T12:23:00;16.80;;;11.82;;
46845;SDS011;33947;46.804;134.252;2023-07-02T12:26:09;20.45;;;12.25;;
46845;SDS011;33947;46.804;134.252;2023-07-02T12:29:16;18.10;;;11.98;;
46845;SDS011;33947;46.804;134.252;2023-07-02T12:32:23;20.40;;;12.57;;
46845;SDS011;33947;46.804;134.252;2023-07-02T12:35:30;18.50;;;11.90;;
46845;SDS011;33947;46.804;134.252;2023-07-02T12:38:34;24.25;;;13.02;;
46845;SDS011;33947;46.804;134.252;2023-07-02T12:41:42;19.50;;;13.25;;
46845;SDS011;33947;46.804;134.252;2023-07-02T12:44:50;29.10;;;13.70;;
46845;SDS011;33947;46.804;134.252;2023-07-02T12:47:55;21.45;;;13.13;;
46845;SDS011;33947;46.804;134.252;2023-07-02T12:50:59;18.60;;;13.00;;
46845;SDS011;33947;46.804;134.252;2023-07-02T12:54:07;34.00;;;14.75;;
46845;SDS011;33947;46.804;134.252;2023-07-02T12:57:14;23.45;;;14.05;;
46845;SDS011;33947;46.804;134.252;2023-07-02T13:00:23;19.48;;;13.68;;
46845;SDS011;33947;46.804;134.252;2023-07-02T13:03:30;23.70;;;13.60;;
46845;SDS011;33947;46.804;134.252;2023-07-02T13:06:36;20.10;;;14.35;;
46845;SDS011;33947;46.804;134.252;2023-07-02T13:09:45;23.45;;;13.30;;
46845;SDS011;33947;46.804;134.252;2023-07-02T13:12:51;18.02;;;13.90;;
46845;SDS011;33947;46.804;134.252;2023-07-02T13:15:58;18.83;;;13.52;;
46845;SDS011;33947;46.804;134.252;2023-07-02T13:19:04;19.90;;;12.98;;
46845;SDS011;33947;46.804;134.252;2023-07-02T13:22:11;24.27;;;13.63;;
46845;SDS011;33947;46.804;134.252;2023-07-02T13:25:17;17.05;;;12.70;;
46845;SDS011;33947;46.804;134.252;2023-07-02T13:28:24;20.58;;;13.18;;
46845;SDS011;33947;46.804;134.252;2023-07-02T13:31:33;22.33;;;13.68;;
46845;SDS011;33947;46.804;134.252;2023-07-02T13:34:41;22.38;;;13.55;;
46845;SDS011;33947;46.804;134.252;2023-07-02T13:37:48;23.13;;;13.82;;
46845;SDS011;33947;46.804;134.252;2023-07-02T13:40:55;21.35;;;13.60;;
46845;SDS011;33947;46.804;134.252;2023-07-02T13:44:02;23.95;;;13.27;;
46845;SDS011;33947;46.804;134.252;2023-07-02T13:47:06;22.23;;;12.63;;
46845;SDS011;33947;46.804;134.252;2023-07-02T13:50:13;24.23;;;12.67;;
46845;SDS011;33947;46.804;134.252;2023-07-02T13:53:19;21.08;;;12.73;;
46845;SDS011;33947;46.804;134.252;2023-07-02T13:56:26;24.17;;;13.00;;
46845;SDS011;33947;46.804;134.252;2023-07-02T13:59:32;21.42;;;12.95;;
46845;SDS011;33947;46.804;134.252;2023-07-02T14:02:39;22.20;;;14.40;;
46845;SDS011;33947;46.804;134.252;2023-07-02T14:05:45;31.13;;;14.75;;
46845;SDS011;33947;46.804;134.252;2023-07-02T14:08:53;23.45;;;15.48;;
46845;SDS011;33947;46.804;134.252;2023-07-02T14:11:59;29.20;;;14.38;;
46845;SDS011;33947;46.804;134.252;2023-07-02T14:15:06;21.25;;;13.98;;
46845;SDS011;33947;46.804;134.252;2023-07-02T14:18:11;22.35;;;13.85;;
46845;SDS011;33947;46.804;134.252;2023-07-02T14:21:19;26.08;;;14.27;;
46845;SDS011;33947;46.804;134.252;2023-07-02T14:24:25;21.90;;;13.90;;
46845;SDS011;33947;46.804;134.252;2023-07-02T14:27:32;18.65;;;13.05;;
46845;SDS011;33947;46.804;134.252;2023-07-02T14:30:38;19.20;;;13.57;;
46845;SDS011;33947;46.804;134.252;2023-07-02T14:33:44;25.63;;;12.88;;
46845;SDS011;33947;46.804;134.252;2023-07-02T14:36:50;21.55;;;13.73;;
46845;SDS011;33947;46.804;134.252;2023-07-02T14:39:57;26.20;;;14.15;;
46845;SDS011;33947;46.804;134.252;2023-07-02T14:43:13;27.35;;;15.23;;
46845;SDS011;33947;46.804;134.252;2023-07-02T14:46:19;21.40;;;13.45;;
46845;SDS011;33947;46.804;134.252;2023-07-02T14:49:28;21.95;;;13.07;;
46845;SDS011;33947;46.804;134.252;2023-07-02T14:52:32;20.92;;;13.20;;
46845;SDS011;33947;46.804;134.252;2023-07-02T14:55:41;28.25;;;13.40;;
46845;SDS011;33947;46.804;134.252;2023-07-02T14:58:48;19.92;;;12.55;;
46845;SDS011;33947;46.804;134.252;2023-07-02T15:01:54;26.23;;;13.35;;
46845;SDS011;33947;46.804;134.252;2023-07-02T15:05:01;23.02;;;13.20;;
46845;SDS011;33947;46.804;134.252;2023-07-02T15:08:08;21.25;;;13.15;;
46845;SDS011;33947;46.804;134.252;2023-07-02T15:11:18;22.02;;;12.45;;
46845;SDS011;33947;46.804;134.252;2023-07-02T15:14:25;18.33;;;13.20;;
46845;SDS011;33947;46.804;134.252;2023-07-02T15:17:31;17.55;;;12.98;;
46845;SDS011;33947;46.804;134.252;2023-07-02T15:20:37;25.17;;;13.73;;
46845;SDS011;33947;46.804;134.252;2023-07-02T15:23:44;21.73;;;13.10;;
46845;SDS011;33947;46.804;134.252;2023-07-02T15:26:51;24.38;;;13.02;;
46845;SDS011;33947;46.804;134.252;2023-07-02T15:29:57;21.08;;;12.35;;
46845;SDS011;33947;46.804;134.252;2023-07-02T15:33:04;24.42;;;12.65;;
46845;SDS011;33947;46.804;134.252;2023-07-02T15:36:10;19.40;;;13.10;;
46845;SDS011;33947;46.804;134.252;2023-07-02T15:39:19;26.02;;;13.38;;
46845;SDS011;33947;46.804;134.252;2023-07-02T15:42:28;17.65;;;12.82;;
46845;SDS011;33947;46.804;134.252;2023-07-02T15:45:35;19.20;;;13.18;;
46845;SDS011;33947;46.804;134.252;2023-07-02T15:48:40;16.15;;;12.68;;
46845;SDS011;33947;46.804;134.252;2023-07-02T15:51:44;17.38;;;12.90;;
46845;SDS011;33947;46.804;134.252;2023-07-02T15:54:54;17.65;;;11.50;;
46845;SDS011;33947;46.804;134.252;2023-07-02T15:58:00;18.63;;;12.43;;
46845;SDS011;33947;46.804;134.252;2023-07-02T16:01:11;19.00;;;11.68;;
46845;SDS011;33947;46.804;134.252;2023-07-02T16:04:22;16.05;;;11.73;;
46845;SDS011;33947;46.804;134.252;2023-07-02T16:07:28;15.18;;;11.43;;
46845;SDS011;33947;46.804;134.252;2023-07-02T16:10:34;16.70;;;11.02;;
46845;SDS011;33947;46.804;134.252;2023-07-02T16:13:41;18.25;;;11.82;;
46845;SDS011;33947;46.804;134.252;2023-07-02T16:16:49;19.15;;;11.73;;
46845;SDS011;33947;46.804;134.252;2023-07-02T16:20:02;17.98;;;11.77;;
46845;SDS011;33947;46.804;134.252;2023-07-02T16:23:11;19.85;;;11.75;;
46845;SDS011;33947;46.804;134.252;2023-07-02T16:26:17;20.05;;;11.35;;
46845;SDS011;33947;46.804;134.252;2023-07-02T16:29:24;17.10;;;11.85;;
46845;SDS011;33947;46.804;134.252;2023-07-02T16:32:32;18.65;;;11.90;;
46845;SDS011;33947;46.804;134.252;2023-07-02T16:35:39;17.42;;;11.25;;
46845;SDS011;33947;46.804;134.252;2023-07-02T16:38:45;16.85;;;11.32;;
46845;SDS011;33947;46.804;134.252;2023-07-02T16:41:51;14.55;;;11.43;;
46845;SDS011;33947;46.804;134.252;2023-07-02T16:44:57;14.32;;;10.55;;
46845;SDS011;33947;46.804;134.252;2023-07-02T16:48:11;15.10;;;10.68;;
46845;SDS011;33947;46.804;134.252;2023-07-02T16:51:17;16.02;;;11.30;;
46845;SDS011;33947;46.804;134.252;2023-07-02T16:54:24;15.18;;;10.98;;
46845;SDS011;33947;46.804;134.252;2023-07-02T16:57:30;15.00;;;10.80;;
46845;SDS011;33947;46.804;134.252;2023-07-02T17:00:36;15.82;;;11.02;;
46845;SDS011;33947;46.804;134.252;2023-07-02T17:03:43;13.43;;;10.63;;
46845;SDS011;33947;46.804;134.252;2023-07-02T17:06:52;16.58;;;11.65;;
46845;SDS011;33947;46.804;134.252;2023-07-02T17:09:58;22.45;;;12.15;;
46845;SDS011;33947;46.804;134.252;2023-07-02T17:13:05;23.85;;;12.10;;
46845;SDS011;33947;46.804;134.252;2023-07-02T17:16:11;19.17;;;11.98;;
46845;SDS011;33947;46.804;134.252;2023-07-02T17:23:00;18.58;;;11.70;;
46845;SDS011;33947;46.804;134.252;2023-07-02T17:26:07;20.30;;;12.00;;
46845;SDS011;33947;46.804;134.252;2023-07-02T17:29:14;16.40;;;12.20;;
46845;SDS011;33947;46.804;134.252;2023-07-02T17:32:22;16.50;;;12.27;;
46845;SDS011;33947;46.804;134.252;2023-07-02T17:35:29;16.80;;;13.10;;
46845;SDS011;33947;46.804;134.252;2023-07-02T17:38:36;17.95;;;14.18;;
46845;SDS011;33947;46.804;134.252;2023-07-02T17:41:43;21.35;;;13.30;;
46845;SDS011;33947;46.804;134.252;2023-07-02T17:44:49;17.60;;;13.00;;
46845;SDS011;33947;46.804;134.252;2023-07-02T17:48:03;27.95;;;14.35;;
46845;SDS011;33947;46.804;134.252;2023-07-02T17:51:10;18.40;;;13.40;;
46845;SDS011;33947;46.804;134.252;2023-07-02T17:54:17;19.48;;;13.75;;
46845;SDS011;33947;46.804;134.252;2023-07-02T17:57:24;20.27;;;13.18;;
46845;SDS011;33947;46.804;134.252;2023-07-02T18:00:31;19.75;;;13.10;;
46845;SDS011;33947;46.804;134.252;2023-07-02T18:03:38;19.33;;;12.43;;
46845;SDS011;33947;46.804;134.252;2023-07-02T18:06:45;18.70;;;12.32;;